Time;durP1;ratioP1;P1;durP2;ratioP2;P2;SDS_P1;SDS_P2;PMS_P1;PMS_P2;Temp;Humidity;BMP_temperature;BMP_pressure;BME280_temperature;BME280_humidity;BME280_pressure;Samples;Min_cycle;Max_cycle;Signal;HPM_P1;HPM_P2
2021/01/25 00:01:39;;;;;;;14.25;8.30;;;;;;;4.93;100.00;99278.88;5008859;28;20044;-79
2021/01/25 00:04:04;;;;;;;15.20;8.77;;;;;;;5.00;100.00;99279.00;5006314;28;20037;-79
2021/01/25 00:06:32;;;;;;;16.10;8.82;;;;;;;5.07;100.00;99279.13;5017478;28;20044;-79
2021/01/25 00:08:58;;;;;;;13.32;8.10;;;;;;;5.17;100.00;99280.44;5023483;28;20148;-79
2021/01/25 00:11:23;;;;;;;15.70;8.82;;;;;;;5.23;100.00;99279.03;5018482;28;20279;-79
2021/01/25 00:13:49;;;;;;;15.35;8.55;;;;;;;5.23;100.00;99287.84;5013086;28;20025;-79
2021/01/25 00:16:14;;;;;;;18.10;9.48;;;;;;;5.20;100.00;99291.22;5018558;28;20037;-79
2021/01/25 00:18:40;;;;;;;18.13;9.15;;;;;;;5.25;100.00;99282.13;5002036;28;20065;-79
2021/01/25 00:21:06;;;;;;;18.15;8.90;;;;;;;5.34;100.00;99280.03;5005454;28;20041;-79
2021/01/25 00:23:32;;;;;;;14.90;8.52;;;;;;;5.30;100.00;99284.53;5014993;28;20022;-79
2021/01/25 00:25:57;;;;;;;13.90;7.57;;;;;;;4.99;100.00;99282.03;5018838;28;20576;-79
2021/01/25 00:28:23;;;;;;;14.55;7.80;;;;;;;5.12;100.00;99284.19;5020464;28;20040;-79
2021/01/25 00:30:49;;;;;;;12.70;7.38;;;;;;;4.98;100.00;99283.91;5016781;28;20033;-79
2021/01/25 00:33:14;;;;;;;13.02;7.80;;;;;;;5.01;100.00;99283.22;4993567;28;20029;-79
2021/01/25 00:35:40;;;;;;;13.05;7.45;;;;;;;5.08;100.00;99282.56;5018018;28;20116;-79
2021/01/25 00:38:05;;;;;;;14.10;7.25;;;;;;;5.06;100.00;99290.94;5011880;28;20068;-79
2021/01/25 00:40:31;;;;;;;12.05;7.40;;;;;;;5.17;100.00;99301.78;5006719;28;20037;-79
2021/01/25 00:42:57;;;;;;;14.75;7.82;;;;;;;5.25;100.00;99298.94;5015644;28;20084;-79
2021/01/25 00:45:22;;;;;;;15.25;8.10;;;;;;;5.25;100.00;99292.81;5000441;28;20033;-79
2021/01/25 00:47:48;;;;;;;12.10;7.60;;;;;;;5.15;100.00;99293.41;5021279;28;20029;-79
2021/01/25 00:50:13;;;;;;;13.57;7.80;;;;;;;5.26;100.00;99289.03;5018118;28;20116;-79
2021/01/25 00:52:39;;;;;;;12.85;7.28;;;;;;;5.24;100.00;99293.94;5016008;28;20029;-79
2021/01/25 00:55:08;;;;;;;13.63;7.60;;;;;;;5.23;100.00;99295.84;5008575;28;20116;-79
2021/01/25 00:57:33;;;;;;;14.00;7.35;;;;;;;5.16;100.00;99289.59;5019065;28;20405;-79
2021/01/25 00:59:59;;;;;;;12.60;7.22;;;;;;;5.17;100.00;99291.91;5001687;28;20029;-79
2021/01/25 01:02:24;;;;;;;15.10;7.47;;;;;;;4.99;100.00;99295.34;5019165;28;21525;-79
2021/01/25 01:04:50;;;;;;;11.27;6.80;;;;;;;4.93;100.00;99294.88;5004838;28;20525;-79
2021/01/25 01:07:16;;;;;;;11.15;6.97;;;;;;;4.87;100.00;99298.94;5035957;28;20030;-79
2021/01/25 01:09:41;;;;;;;11.80;6.80;;;;;;;5.07;100.00;99297.06;5014652;28;20037;-79
2021/01/25 01:12:07;;;;;;;13.88;6.82;;;;;;;5.07;100.00;99303.13;5030420;28;20032;-78
2021/01/25 01:14:33;;;;;;;12.18;7.30;;;;;;;5.06;100.00;99301.59;5019235;28;20056;-79
2021/01/25 01:16:58;;;;;;;11.10;7.05;;;;;;;5.11;100.00;99303.97;5009237;28;20056;-79
2021/01/25 01:19:25;;;;;;;11.13;7.05;;;;;;;5.07;100.00;99311.13;5008616;28;20094;-79
2021/01/25 01:21:50;;;;;;;12.52;7.28;;;;;;;5.10;100.00;99307.78;5021143;28;20029;-79
2021/01/25 01:24:16;;;;;;;11.20;7.30;;;;;;;4.87;100.00;99306.94;5000403;28;20485;-79
2021/01/25 01:26:41;;;;;;;13.10;7.13;;;;;;;5.01;100.00;99306.44;5010898;28;20053;-79
2021/01/25 01:29:07;;;;;;;13.93;7.18;;;;;;;4.82;100.00;99304.53;4990119;28;20034;-78
2021/01/25 01:31:33;;;;;;;11.65;7.00;;;;;;;4.85;100.00;99308.41;5014846;28;20059;-79
2021/01/25 01:33:58;;;;;;;13.10;7.10;;;;;;;4.96;100.00;99301.38;5010622;28;20113;-79
2021/01/25 01:36:23;;;;;;;11.55;6.80;;;;;;;4.96;100.00;99309.38;5017742;28;20034;-78
2021/01/25 01:38:49;;;;;;;14.25;7.70;;;;;;;5.03;100.00;99312.97;4998589;28;20128;-79
2021/01/25 01:41:35;;;;;;;11.95;7.47;;;;;;;5.07;100.00;99316.47;5032899;28;20045;-79
2021/01/25 01:44:02;;;;;;;12.30;6.68;;;;;;;5.04;100.00;99313.75;4946079;28;20043;-79
2021/01/25 01:46:28;;;;;;;10.63;7.18;;;;;;;5.03;100.00;99312.22;4940994;28;20042;-79
2021/01/25 01:48:53;;;;;;;14.32;7.93;;;;;;;5.10;100.00;99312.34;4956934;28;20121;-78
2021/01/25 01:51:40;;;;;;;14.05;8.02;;;;;;;5.01;100.00;99314.44;4946605;28;20118;-79
2021/01/25 01:54:07;;;;;;;22.55;8.80;;;;;;;5.07;100.00;99313.81;4900527;29;20075;-79
2021/01/25 01:56:36;;;;;;;18.60;8.18;;;;;;;4.90;100.00;99308.09;4904137;29;20041;-79
2021/01/25 01:59:02;;;;;;;13.20;7.53;;;;;;;4.92;100.00;99298.66;4893877;29;20092;-79
2021/01/25 02:01:27;;;;;;;25.85;10.40;;;;;;;4.95;100.00;99307.84;4879184;29;20040;-78
2021/01/25 02:03:54;;;;;;;19.67;8.63;;;;;;;4.97;100.00;99314.38;4896710;29;20069;-79
2021/01/25 02:06:21;;;;;;;16.13;8.00;;;;;;;4.72;100.00;99318.44;4875563;29;20143;-79
2021/01/25 02:08:48;;;;;;;12.13;7.68;;;;;;;4.86;100.00;99316.03;4893283;29;20075;-79
2021/01/25 02:11:15;;;;;;;12.02;7.00;;;;;;;4.95;100.00;99316.63;4885491;29;20049;-78
2021/01/25 02:13:42;;;;;;;18.35;9.40;;;;;;;5.01;100.00;99312.56;4893487;29;20052;-79
2021/01/25 02:16:07;;;;;;;16.92;8.88;;;;;;;5.02;100.00;99311.44;4890040;29;20089;-79
2021/01/25 02:18:36;;;;;;;14.70;8.10;;;;;;;4.88;100.00;99316.47;4891491;29;20068;-79
2021/01/25 02:21:09;;;;;;;12.35;7.88;;;;;;;4.80;100.00;99317.44;4906952;28;20082;-79
2021/01/25 02:23:46;;;;;;;14.77;8.75;;;;;;;4.87;100.00;99316.81;4941317;28;20106;-79
2021/01/25 02:26:26;;;;;;;11.05;7.40;;;;;;;4.85;100.00;99324.41;4945762;28;20038;-79
2021/01/25 02:28:52;;;;;;;12.80;7.88;;;;;;;4.79;100.00;99317.78;4951063;28;20035;-79
2021/01/25 02:31:38;;;;;;;11.75;7.82;;;;;;;4.85;100.00;99319.06;4978983;28;20041;-79
2021/01/25 02:34:05;;;;;;;11.95;7.25;;;;;;;4.68;100.00;99328.25;4962905;28;20769;-79
2021/01/25 02:36:33;;;;;;;13.07;7.57;;;;;;;4.66;100.00;99324.38;4965052;28;20047;-79
2021/01/25 02:39:01;;;;;;;14.18;7.72;;;;;;;4.85;100.00;99314.50;4976172;28;20047;-78
2021/01/25 02:41:28;;;;;;;14.75;7.65;;;;;;;4.63;100.00;99320.50;4954110;28;20042;-79
2021/01/25 02:43:55;;;;;;;15.70;8.48;;;;;;;4.71;100.00;99324.88;4946698;28;20125;-79
2021/01/25 02:46:22;;;;;;;14.02;7.57;;;;;;;4.63;100.00;99327.75;4949895;28;20089;-79
2021/01/25 02:48:48;;;;;;;14.45;6.90;;;;;;;4.68;100.00;99325.56;4939844;28;20122;-79
2021/01/25 02:51:14;;;;;;;14.75;7.97;;;;;;;4.68;100.00;99333.56;4966345;28;20590;-79
2021/01/25 02:53:39;;;;;;;14.57;8.60;;;;;;;4.78;100.00;99329.59;4949588;28;20066;-79
2021/01/25 02:56:07;;;;;;;15.85;9.32;;;;;;;4.92;100.00;99327.19;4954358;28;20053;-79
2021/01/25 02:58:34;;;;;;;16.35;9.73;;;;;;;4.88;100.00;99332.47;4941153;28;20046;-79
2021/01/25 03:00:59;;;;;;;15.90;9.35;;;;;;;4.92;100.00;99335.19;4945916;28;20038;-79
2021/01/25 03:03:27;;;;;;;15.88;9.73;;;;;;;4.82;100.00;99333.84;4954995;28;20086;-79
2021/01/25 03:05:56;;;;;;;16.38;10.07;;;;;;;4.78;100.00;99326.91;4973871;28;20067;-79
2021/01/25 03:08:22;;;;;;;21.70;11.18;;;;;;;4.86;100.00;99326.72;4955405;28;20086;-79
2021/01/25 03:10:47;;;;;;;20.95;11.48;;;;;;;4.84;100.00;99328.19;4981608;28;20049;-79
2021/01/25 03:13:13;;;;;;;19.60;11.40;;;;;;;4.92;100.00;99327.97;5005671;28;20083;-79
2021/01/25 03:15:40;;;;;;;21.98;11.82;;;;;;;4.98;100.00;99320.47;5011439;28;20038;-79
2021/01/25 03:18:06;;;;;;;22.50;11.73;;;;;;;4.93;100.00;99323.44;5016579;28;20029;-79
2021/01/25 03:20:31;;;;;;;24.83;12.13;;;;;;;5.02;100.00;99322.09;5017215;28;20033;-79
2021/01/25 03:22:57;;;;;;;22.15;13.27;;;;;;;4.93;100.00;99328.75;5024209;28;20037;-79
2021/01/25 03:25:23;;;;;;;21.40;12.25;;;;;;;4.97;100.00;99319.72;4997603;28;20025;-79
2021/01/25 03:27:48;;;;;;;24.73;12.15;;;;;;;4.92;100.00;99317.31;5009671;28;20034;-79
2021/01/25 03:30:15;;;;;;;22.67;11.23;;;;;;;4.84;100.00;99323.63;5004835;28;20503;-79
2021/01/25 03:32:42;;;;;;;21.95;11.05;;;;;;;4.75;100.00;99323.06;5013595;28;20034;-79
2021/01/25 03:35:09;;;;;;;22.40;11.70;;;;;;;4.88;100.00;99329.03;5013385;28;20045;-79
2021/01/25 03:37:35;;;;;;;20.25;12.15;;;;;;;4.96;100.00;99336.84;5024362;28;20061;-79
2021/01/25 03:40:01;;;;;;;20.20;11.57;;;;;;;4.92;100.00;99343.97;5009668;28;20079;-79
2021/01/25 03:42:26;;;;;;;21.27;11.88;;;;;;;4.94;100.00;99346.28;5006022;28;20056;-79
2021/01/25 03:45:12;;;;;;;22.33;12.45;;;;;;;4.89;100.00;99350.03;4990195;28;20391;-79
2021/01/25 03:47:38;;;;;;;23.08;13.10;;;;;;;4.87;100.00;99346.94;4949253;28;20047;-79
2021/01/25 03:50:05;;;;;;;26.48;13.05;;;;;;;4.89;100.00;99352.69;4936864;28;20055;-79
2021/01/25 03:52:30;;;;;;;21.50;13.45;;;;;;;4.81;100.00;99364.31;4937319;29;20042;-79
2021/01/25 03:54:56;;;;;;;23.30;14.27;;;;;;;4.84;100.00;99358.28;4928807;28;20101;-78
2021/01/25 03:57:22;;;;;;;25.67;14.77;;;;;;;4.78;100.00;99359.66;4939324;29;20534;-79
2021/01/25 03:59:47;;;;;;;23.77;14.07;;;;;;;4.61;100.00;99364.63;4935227;28;20582;-79
2021/01/25 04:02:13;;;;;;;28.98;15.68;;;;;;;4.87;100.00;99354.94;4952445;28;20114;-79
2021/01/25 04:04:42;;;;;;;24.67;14.98;;;;;;;4.74;100.00;99360.72;4952183;28;20428;-79
2021/01/25 04:07:11;;;;;;;30.80;16.95;;;;;;;4.77;100.00;99374.13;4951499;28;20067;-79
2021/01/25 04:09:38;;;;;;;35.90;18.60;;;;;;;4.66;100.00;99365.13;4933744;29;20028;-79
2021/01/25 04:12:04;;;;;;;36.72;18.80;;;;;;;4.80;100.00;99365.44;4935653;28;20046;-78
2021/01/25 04:14:30;;;;;;;37.17;19.10;;;;;;;4.73;100.00;99369.84;4953875;28;20040;-79
2021/01/25 04:16:55;;;;;;;37.85;20.15;;;;;;;4.74;100.00;99368.72;4934593;28;20038;-79
2021/01/25 04:19:20;;;;;;;35.15;19.55;;;;;;;4.81;100.00;99375.00;4931655;29;20043;-79
2021/01/25 04:21:46;;;;;;;43.53;22.17;;;;;;;4.80;100.00;99362.00;4935654;28;20528;-79
2021/01/25 04:24:11;;;;;;;38.78;21.38;;;;;;;4.77;100.00;99379.47;4981914;28;20041;-79
2021/01/25 04:26:41;;;;;;;46.50;22.67;;;;;;;4.86;100.00;99372.03;5017827;28;20500;-79
2021/01/25 04:29:09;;;;;;;46.25;23.30;;;;;;;4.84;100.00;99373.53;5000314;28;20421;-79
2021/01/25 04:31:35;;;;;;;43.00;22.48;;;;;;;4.58;100.00;99371.41;5014323;28;20048;-79
2021/01/25 04:34:00;;;;;;;45.30;23.33;;;;;;;4.63;100.00;99378.38;4997810;28;20034;-79
2021/01/25 04:36:26;;;;;;;43.58;22.83;;;;;;;4.47;100.00;99378.41;5009329;28;20042;-79
2021/01/25 04:38:52;;;;;;;45.40;22.33;;;;;;;4.66;100.00;99378.47;5014929;28;20116;-79
2021/01/25 04:41:17;;;;;;;46.47;22.67;;;;;;;4.37;100.00;99382.38;5018475;28;20111;-79
2021/01/25 04:43:43;;;;;;;42.78;21.33;;;;;;;4.50;100.00;99386.47;5022923;28;20037;-79
2021/01/25 04:46:09;;;;;;;42.75;21.75;;;;;;;4.50;100.00;99383.81;5016263;28;20071;-79
2021/01/25 04:48:37;;;;;;;45.65;21.95;;;;;;;4.34;100.00;99387.59;5008457;28;20037;-79
2021/01/25 04:51:02;;;;;;;46.03;22.95;;;;;;;4.44;100.00;99387.06;5007197;28;20120;-79
2021/01/25 04:53:29;;;;;;;47.97;22.70;;;;;;;4.41;100.00;99387.78;5013398;28;20774;-79
2021/01/25 04:55:56;;;;;;;49.17;23.45;;;;;;;4.50;100.00;99391.81;4999686;28;20041;-79
2021/01/25 04:58:42;;;;;;;49.65;23.92;;;;;;;4.54;100.00;99398.00;5009210;28;20037;-79
2021/01/25 05:01:08;;;;;;;46.92;22.92;;;;;;;4.54;100.00;99392.66;4951313;28;20053;-79
2021/01/25 05:03:34;;;;;;;50.83;23.48;;;;;;;4.57;100.00;99404.50;4934822;29;20416;-79
2021/01/25 05:06:00;;;;;;;46.72;23.92;;;;;;;4.56;100.00;99405.63;4954697;28;20043;-79
2021/01/25 05:08:25;;;;;;;49.65;22.90;;;;;;;4.40;100.00;99399.53;4950063;28;20053;-79
2021/01/25 05:10:51;;;;;;;43.53;21.10;;;;;;;4.39;100.00;99398.75;4953508;28;20043;-79
2021/01/25 05:13:21;;;;;;;41.03;20.58;;;;;;;4.37;100.00;99400.22;4935665;28;20062;-79
2021/01/25 05:15:50;;;;;;;42.95;19.70;;;;;;;4.27;100.00;99393.53;4971795;28;20482;-79
2021/01/25 05:18:20;;;;;;;49.17;20.77;;;;;;;4.44;100.00;99397.72;4955928;28;20055;-79
2021/01/25 05:20:48;;;;;;;40.78;20.85;;;;;;;4.51;100.00;99405.88;4939470;28;20047;-79
2021/01/25 05:23:15;;;;;;;42.47;21.63;;;;;;;4.47;100.00;99402.38;4952762;28;20031;-79
2021/01/25 05:25:41;;;;;;;49.50;22.15;;;;;;;4.33;100.00;99394.03;4936413;28;20127;-79
2021/01/25 05:28:13;;;;;;;42.70;20.95;;;;;;;4.41;100.00;99398.44;4946701;28;20046;-79
2021/01/25 05:30:39;;;;;;;45.70;20.85;;;;;;;4.54;100.00;99400.66;4973232;28;20034;-79
2021/01/25 05:33:04;;;;;;;42.70;20.77;;;;;;;4.48;100.00;99396.72;4961963;28;20527;-79
2021/01/25 05:35:32;;;;;;;46.17;22.27;;;;;;;4.23;100.00;99403.31;4964842;28;20070;-79
2021/01/25 05:38:02;;;;;;;41.72;21.02;;;;;;;4.10;100.00;99395.75;4975317;28;20571;-79
2021/01/25 05:40:29;;;;;;;45.42;21.42;;;;;;;4.09;100.00;99394.19;5029626;28;20029;-79
2021/01/25 05:42:56;;;;;;;45.50;21.55;;;;;;;4.28;100.00;99402.28;5006448;28;20033;-79
2021/01/25 05:45:23;;;;;;;43.22;21.65;;;;;;;4.41;100.00;99409.84;4994309;28;20030;-79
2021/01/25 05:48:13;;;;;;;48.08;21.30;;;;;;;4.58;100.00;99409.50;5006448;28;20485;-79
2021/01/25 05:50:41;;;;;;;41.15;20.17;;;;;;;4.46;100.00;99403.50;4960399;28;20143;-79
2021/01/25 05:53:08;;;;;;;46.55;21.20;;;;;;;4.65;100.00;99410.78;4950589;28;20039;-78
2021/01/25 05:55:35;;;;;;;44.28;21.25;;;;;;;4.54;100.00;99413.22;4946985;28;20047;-79
2021/01/25 05:58:02;;;;;;;43.53;21.67;;;;;;;4.54;100.00;99407.88;4942234;28;20587;-79
2021/01/25 06:00:28;;;;;;;43.58;21.77;;;;;;;4.54;100.00;99414.00;4951434;28;20034;-79
2021/01/25 06:02:55;;;;;;;43.25;21.02;;;;;;;4.44;100.00;99405.72;4969794;28;20569;-79
2021/01/25 06:05:28;;;;;;;39.28;20.35;;;;;;;4.21;100.00;99410.88;4965532;28;20049;-79
2021/01/25 06:08:02;;;;;;;48.17;21.75;;;;;;;4.49;100.00;99413.47;4969872;28;20046;-78
2021/01/25 06:10:33;;;;;;;47.47;19.92;;;;;;;4.58;100.00;99419.41;4944753;28;20027;-79
2021/01/25 06:13:08;;;;;;;41.55;21.05;;;;;;;4.55;100.00;99414.75;4948864;28;20037;-79
2021/01/25 06:15:36;;;;;;;42.42;21.90;;;;;;;4.54;100.00;99413.22;4939452;28;20062;-78
2021/01/25 06:18:22;;;;;;;50.42;22.13;;;;;;;4.63;100.00;99424.47;4961018;28;20041;-79
2021/01/25 06:20:52;;;;;;;41.63;19.63;;;;;;;4.65;100.00;99416.88;4903067;29;20091;-79
2021/01/25 06:23:18;;;;;;;45.30;21.67;;;;;;;4.52;100.00;99429.56;4898833;29;20131;-79
2021/01/25 06:25:44;;;;;;;52.13;22.35;;;;;;;4.46;100.00;99438.13;4898204;29;20131;-79
2021/01/25 06:28:13;;;;;;;46.25;22.88;;;;;;;4.51;100.00;99435.97;4940880;28;20046;-79
2021/01/25 06:30:43;;;;;;;42.90;20.33;;;;;;;4.53;100.00;99443.63;4965914;28;20034;-80
2021/01/25 06:33:12;;;;;;;48.30;22.05;;;;;;;4.58;100.00;99452.16;4936496;29;20577;-80
2021/01/25 06:35:58;;;;;;;47.08;22.55;;;;;;;4.65;100.00;99451.53;4948521;28;20043;-79
2021/01/25 06:38:24;;;;;;;48.13;23.15;;;;;;;4.66;100.00;99453.09;4910432;29;20135;-79
2021/01/25 06:40:50;;;;;;;48.03;23.58;;;;;;;4.70;100.00;99458.50;4904626;29;20166;-79
2021/01/25 06:43:17;;;;;;;55.85;23.58;;;;;;;4.64;100.00;99449.22;4914595;29;20040;-79
2021/01/25 06:45:45;;;;;;;46.85;22.73;;;;;;;4.60;100.00;99462.47;4912748;29;20044;-79
2021/01/25 06:48:16;;;;;;;46.58;22.48;;;;;;;4.58;100.00;99460.16;4904671;29;20043;-79
2021/01/25 06:50:48;;;;;;;47.10;22.30;;;;;;;4.42;100.00;99469.25;4901030;29;20054;-79
2021/01/25 06:53:15;;;;;;;47.55;22.38;;;;;;;4.42;100.00;99479.91;4898218;29;20142;-79
2021/01/25 06:55:43;;;;;;;46.38;21.25;;;;;;;4.57;100.00;99468.47;4895596;29;20052;-79
2021/01/25 06:58:11;;;;;;;45.03;21.95;;;;;;;4.51;100.00;99480.50;4921508;29;20463;-79
2021/01/25 07:00:39;;;;;;;47.20;22.10;;;;;;;4.54;100.00;99477.19;4935378;28;20030;-79
2021/01/25 07:03:06;;;;;;;45.95;21.90;;;;;;;4.45;100.00;99473.91;4946062;28;20539;-79
2021/01/25 07:05:35;;;;;;;49.38;21.77;;;;;;;4.33;100.00;99476.63;4931537;29;20027;-79
2021/01/25 07:08:19;;;;;;;48.92;22.08;;;;;;;4.56;100.00;99485.59;4949044;28;20043;-79
2021/01/25 07:10:54;;;;;;;46.78;21.90;;;;;;;4.61;100.00;99481.91;4929051;29;20042;-79
2021/01/25 07:13:21;;;;;;;45.45;20.67;;;;;;;4.69;100.00;99487.06;4950308;28;20516;-79
2021/01/25 07:15:48;;;;;;;48.67;22.20;;;;;;;4.69;100.00;99489.72;4982371;28;20098;-79
2021/01/25 07:18:13;;;;;;;46.05;22.13;;;;;;;4.56;100.00;99490.94;5026331;28;20422;-79
2021/01/25 07:20:39;;;;;;;47.35;21.55;;;;;;;4.57;100.00;99495.91;4991048;28;20042;-79
2021/01/25 07:23:07;;;;;;;49.40;22.63;;;;;;;4.72;100.00;99498.94;4993496;28;20034;-79
2021/01/25 07:25:32;;;;;;;47.75;21.42;;;;;;;4.45;100.00;99498.66;4999558;28;20122;-80
2021/01/25 07:28:03;;;;;;;53.75;22.88;;;;;;;4.56;100.00;99510.38;5024877;28;20107;-80
2021/01/25 07:30:32;;;;;;;49.13;21.95;;;;;;;4.50;100.00;99516.28;5008595;28;20048;-79
2021/01/25 07:33:04;;;;;;;56.22;22.77;;;;;;;4.41;100.00;99513.78;5005242;28;20390;-79
2021/01/25 07:35:29;;;;;;;53.55;23.00;;;;;;;4.54;100.00;99517.16;4995598;28;20041;-79
2021/01/25 07:37:55;;;;;;;55.20;22.58;;;;;;;4.46;100.00;99518.88;4999566;28;20037;-79
2021/01/25 07:40:24;;;;;;;55.95;22.63;;;;;;;4.49;100.00;99520.09;5006115;28;20402;-79
2021/01/25 07:42:50;;;;;;;57.03;22.88;;;;;;;4.53;100.00;99523.59;4982065;28;20069;-79
2021/01/25 07:45:16;;;;;;;55.72;22.42;;;;;;;4.51;100.00;99531.16;5004680;28;20077;-79
2021/01/25 07:47:46;;;;;;;59.28;22.75;;;;;;;4.24;100.00;99527.41;5009987;28;20026;-79
2021/01/25 07:50:32;;;;;;;61.15;23.85;;;;;;;4.33;100.00;99535.25;4992730;28;20496;-79
2021/01/25 07:53:03;;;;;;;62.88;23.88;;;;;;;4.60;100.00;99534.44;4922484;28;20125;-79
2021/01/25 07:55:30;;;;;;;57.95;22.08;;;;;;;4.52;100.00;99540.72;4912795;28;20059;-79
2021/01/25 07:58:13;;;;;;;55.50;22.15;;;;;;;4.43;100.00;99543.53;4931620;28;20448;-80
2021/01/25 08:00:40;;;;;;;62.20;22.30;;;;;;;4.38;100.00;99545.66;4935345;29;20039;-79
2021/01/25 08:03:15;;;;;;;57.05;22.05;;;;;;;4.41;100.00;99539.66;4923203;28;20523;-79
2021/01/25 08:05:42;;;;;;;60.67;23.38;;;;;;;4.52;100.00;99548.69;4934274;29;20051;-79
2021/01/25 08:08:11;;;;;;;59.78;22.35;;;;;;;4.53;100.00;99550.25;4930641;28;20038;-80
2021/01/25 08:10:38;;;;;;;47.65;20.60;;;;;;;4.44;100.00;99555.75;4914716;28;20120;-79
2021/01/25 08:13:19;;;;;;;52.90;21.02;;;;;;;4.52;100.00;99557.47;4935505;28;20027;-78
2021/01/25 08:15:57;;;;;;;52.00;21.83;;;;;;;4.60;100.00;99566.44;4918375;29;20693;-79
2021/01/25 08:18:36;;;;;;;67.40;23.05;;;;;;;4.63;100.00;99572.97;4921581;28;20043;-80
2021/01/25 08:21:04;;;;;;;59.70;22.05;;;;;;;4.64;100.00;99567.31;4934764;29;20040;-79
2021/01/25 08:23:38;;;;;;;55.17;21.95;;;;;;;4.49;100.00;99571.47;4933160;28;20450;-79
2021/01/25 08:26:07;;;;;;;48.45;19.55;;;;;;;4.46;100.00;99579.38;4907565;28;20047;-79
2021/01/25 08:28:36;;;;;;;61.22;23.00;;;;;;;4.56;100.00;99577.00;4919162;29;20035;-80
2021/01/25 08:31:11;;;;;;;64.47;22.75;;;;;;;4.59;100.00;99584.31;5004269;28;20049;-79
2021/01/25 08:33:39;;;;;;;59.97;22.52;;;;;;;4.50;100.00;99580.25;5016256;28;20095;-79
2021/01/25 08:36:08;;;;;;;50.55;21.60;;;;;;;4.44;100.00;99585.06;5024689;28;20128;-79
2021/01/25 08:38:42;;;;;;;56.35;21.95;;;;;;;4.38;100.00;99586.41;5010546;28;20022;-79
2021/01/25 08:41:38;;;;;;;56.15;21.23;;;;;;;4.34;100.00;99587.41;5015965;28;20064;-79
2021/01/25 08:44:14;;;;;;;53.92;21.88;;;;;;;4.38;100.00;99586.41;5010140;28;20041;-79
2021/01/25 08:46:40;;;;;;;48.40;21.77;;;;;;;4.25;100.00;99592.91;5003696;28;20041;-79
2021/01/25 08:49:13;;;;;;;54.65;20.05;;;;;;;4.20;100.00;99593.13;5011301;28;20069;-79
2021/01/25 08:51:39;;;;;;;47.28;19.13;;;;;;;4.17;100.00;99599.16;5009442;28;20402;-79
2021/01/25 08:54:28;;;;;;;54.22;21.30;;;;;;;4.32;100.00;99589.66;5011699;28;20465;-79
2021/01/25 08:56:54;;;;;;;52.08;20.15;;;;;;;4.29;100.00;99603.66;5000221;28;20041;-80
2021/01/25 08:59:39;;;;;;;48.05;19.35;;;;;;;4.45;100.00;99607.16;4998094;28;20071;-79
2021/01/25 09:02:21;;;;;;;52.85;20.58;;;;;;;4.44;100.00;99609.03;5020301;28;20125;-79
2021/01/25 09:04:52;;;;;;;52.05;19.88;;;;;;;4.22;100.00;99609.56;5011855;28;20045;-79
2021/01/25 09:07:20;;;;;;;58.37;23.13;;;;;;;4.13;100.00;99622.25;4992707;28;20104;-79
2021/01/25 09:09:46;;;;;;;54.08;21.35;;;;;;;4.35;100.00;99618.28;5005616;28;20026;-80
2021/01/25 09:12:14;;;;;;;53.05;20.98;;;;;;;4.63;100.00;99626.28;5017659;28;20030;-79
2021/01/25 09:14:40;;;;;;;51.20;19.65;;;;;;;4.43;100.00;99625.38;5003348;28;20046;-79
2021/01/25 09:17:07;;;;;;;49.85;20.17;;;;;;;4.34;100.00;99628.16;5014192;28;20095;-80
2021/01/25 09:19:53;;;;;;;56.65;21.90;;;;;;;4.36;100.00;99633.94;5014710;28;20032;-79
2021/01/25 09:22:18;;;;;;;48.75;18.33;;;;;;;4.39;100.00;99625.25;4961298;28;20107;-79
2021/01/25 09:24:44;;;;;;;55.05;19.90;;;;;;;4.24;100.00;99639.28;4948207;28;20047;-80
2021/01/25 09:27:11;;;;;;;51.03;20.15;;;;;;;4.20;100.00;99637.66;4947275;28;20043;-79
2021/01/25 09:29:37;;;;;;;50.03;20.13;;;;;;;4.30;100.00;99635.28;4937955;28;20102;-79
2021/01/25 09:32:04;;;;;;;51.25;20.73;;;;;;;4.55;100.00;99639.41;4944825;28;20035;-79
2021/01/25 09:34:29;;;;;;;47.55;20.40;;;;;;;4.43;100.00;99638.69;4920372;28;20609;-79
2021/01/25 09:36:55;;;;;;;49.47;19.65;;;;;;;4.44;100.00;99634.91;4944766;28;20043;-79
2021/01/25 09:39:20;;;;;;;43.30;17.35;;;;;;;4.45;100.00;99647.88;4953189;28;20420;-80
2021/01/25 09:41:47;;;;;;;43.65;17.45;;;;;;;4.35;100.00;99651.06;4941540;28;20062;-80
2021/01/25 09:44:15;;;;;;;50.15;19.48;;;;;;;4.49;100.00;99656.00;4941190;28;20043;-79
2021/01/25 09:46:42;;;;;;;52.30;20.40;;;;;;;4.20;100.00;99653.66;4959858;28;20086;-80
2021/01/25 09:49:10;;;;;;;57.60;20.35;;;;;;;4.33;100.00;99663.16;4927634;28;20031;-79
2021/01/25 09:51:36;;;;;;;54.38;20.52;;;;;;;4.36;100.00;99657.91;4939230;29;20079;-79
2021/01/25 09:54:02;;;;;;;49.03;20.55;;;;;;;4.37;100.00;99661.38;4956603;28;20034;-80
2021/01/25 09:56:27;;;;;;;47.75;20.48;;;;;;;4.36;100.00;99657.91;4936056;28;20147;-79
2021/01/25 09:58:53;;;;;;;45.83;18.50;;;;;;;4.50;100.00;99657.53;4972012;28;20247;-78
2021/01/25 10:01:18;;;;;;;49.90;21.10;;;;;;;4.45;100.00;99663.13;5012067;28;20407;-79
2021/01/25 10:03:47;;;;;;;53.00;20.48;;;;;;;4.27;100.00;99667.94;5026204;28;20409;-79
2021/01/25 10:06:12;;;;;;;50.75;20.55;;;;;;;4.41;100.00;99675.56;5003753;28;20083;-80
2021/01/25 10:08:38;;;;;;;56.45;22.13;;;;;;;4.42;100.00;99677.09;5004518;28;20092;-79
2021/01/25 10:11:05;;;;;;;48.90;20.50;;;;;;;4.46;100.00;99686.75;5011093;28;20529;-79
2021/01/25 10:13:31;;;;;;;50.08;20.85;;;;;;;4.38;100.00;99686.88;4995234;28;20276;-79
2021/01/25 10:15:57;;;;;;;41.72;19.73;;;;;;;4.28;100.00;99690.78;4990497;28;20111;-79
2021/01/25 10:18:22;;;;;;;52.30;19.85;;;;;;;4.41;100.00;99688.88;5014814;28;20449;-78
2021/01/25 10:20:48;;;;;;;48.30;21.15;;;;;;;4.62;100.00;99686.03;5017066;28;20437;-79
2021/01/25 10:23:13;;;;;;;49.50;20.55;;;;;;;4.46;100.00;99693.97;5011530;28;20068;-79
2021/01/25 10:25:40;;;;;;;45.97;19.40;;;;;;;4.32;100.00;99699.66;5003091;28;20045;-79
2021/01/25 10:28:06;;;;;;;49.70;20.45;;;;;;;4.61;100.00;99705.84;5022555;28;20083;-79
2021/01/25 10:30:34;;;;;;;51.20;21.55;;;;;;;4.59;100.00;99708.81;4989315;28;20041;-79
2021/01/25 10:33:00;;;;;;;46.63;20.55;;;;;;;4.49;100.00;99709.31;5011407;28;20037;-79
2021/01/25 10:35:29;;;;;;;53.22;23.02;;;;;;;4.59;100.00;99716.81;5008459;28;20132;-79
2021/01/25 10:37:54;;;;;;;50.45;21.73;;;;;;;4.25;100.00;99718.13;5009923;28;20040;-79
2021/01/25 10:40:20;;;;;;;51.92;21.00;;;;;;;4.48;100.00;99713.84;5024794;28;20100;-79
2021/01/25 10:42:45;;;;;;;53.95;22.65;;;;;;;4.57;100.00;99724.38;5001326;28;20502;-80
2021/01/25 10:45:12;;;;;;;52.30;22.10;;;;;;;4.49;100.00;99719.97;4994084;28;20731;-79
2021/01/25 10:47:38;;;;;;;59.75;23.17;;;;;;;4.50;100.00;99724.16;5002244;28;20154;-79
2021/01/25 10:50:06;;;;;;;57.83;24.08;;;;;;;4.51;100.00;99720.38;5001763;28;20437;-80
2021/01/25 10:52:34;;;;;;;54.72;23.17;;;;;;;4.51;100.00;99723.03;5006397;28;20037;-79
2021/01/25 10:55:00;;;;;;;48.47;21.90;;;;;;;4.44;100.00;99730.84;5010331;28;20079;-79
2021/01/25 10:57:25;;;;;;;51.45;21.45;;;;;;;4.43;100.00;99731.97;5017404;28;20045;-79
2021/01/25 10:59:51;;;;;;;46.70;19.85;;;;;;;4.62;100.00;99732.16;5006854;28;20100;-79
2021/01/25 11:02:18;;;;;;;47.95;21.15;;;;;;;4.41;100.00;99734.19;4990691;28;20057;-80
2021/01/25 11:04:45;;;;;;;54.28;21.08;;;;;;;4.48;100.00;99735.19;5011323;28;20069;-79
2021/01/25 11:07:11;;;;;;;54.95;21.50;;;;;;;4.55;100.00;99734.59;5008418;28;20029;-80
2021/01/25 11:09:37;;;;;;;48.65;22.30;;;;;;;4.73;100.00;99732.44;5000323;28;20698;-80
2021/01/25 11:12:02;;;;;;;49.83;21.25;;;;;;;4.64;100.00;99737.13;4987266;28;20041;-79
2021/01/25 11:14:28;;;;;;;52.50;22.70;;;;;;;4.71;100.00;99750.66;4995855;28;20074;-80
2021/01/25 11:16:53;;;;;;;50.78;22.27;;;;;;;4.60;100.00;99745.03;4999205;28;20033;-80
2021/01/25 11:19:19;;;;;;;55.53;22.65;;;;;;;4.65;100.00;99749.34;4992837;28;20171;-80
2021/01/25 11:21:45;;;;;;;50.95;22.30;;;;;;;4.56;100.00;99752.94;4999821;28;20058;-80
2021/01/25 11:24:11;;;;;;;50.03;21.15;;;;;;;4.34;100.00;99749.94;5010422;28;20055;-80